Beauvechain, Belgique

16:04 CET le 20 décembre 2014 (GMT +0100)
IRGIONWA10 | Change Station
CLOSE
Current Station
Stations météorologiques personnelles
Location: Jodoigne, ReGION WALLONNE
Altitude: 256 ft
Stations météo à proximité

Alt. 256 ft 50.73 °N, 4.87 °E | Updated 18 seconds ago

Mostly Cloudy
Nuageux
45.8 ° F
Paraît 42 ° F
N
8.0
Vent Variable Vent de Ouest
Gusts 10.0 mph

Aujourd'hui
Haut(e) -- | Bas -- ° F
--% Risque de précip.
Hier
Haut(e) -- | Bas -- ° F
Precip. -- pouce
8:39 AM 4:37 PM
Lune descendante, 3% visible
Pression 30.21 pouce
Visibilité 6.2 Miles terrestres
Nuages Nuageux 3200 ft
Refroidissement éolien 42 ° F
Point de rosée 40 ° F
Humidité 80%
Précipitations 0.00 pouce
Profondeur de la couche neigeuse Non disponible.
UV 0.0 sur 12
Pollen Non disponible.
Qualité de l'air Non disponible.
Flu Activity Non disponible.
METAR EBBR 201450Z 28016KT 9999 BKN032 08/03 Q1023 NOSIG

More Conditions Fewer Conditions

Pression 30.21 pouce
Visibilité 6.2 Miles terrestres
Nuages Nuageux 3200 ft
Refroidissement éolien 42 ° F
Point de rosée 40 ° F
Humidité 80%
Précipitations 0.00 pouce
Profondeur de la couche neigeuse Non disponible.
UV 0.0 sur 12
Pollen Non disponible.
Qualité de l'air Non disponible.
Flu Activity Non disponible.
METAR EBBR 201450Z 28016KT 9999 BKN032 08/03 Q1023 NOSIG

More Conditions Fewer Conditions

10-Day Weather Forecast

Almanac

Astronomie

Dec. 20, 2014 Lever Coucher
Temps réel
Crépuscule civil
Crépuscule nautique
Crépuscule astronomique
Lune
Durée de lumière visible
Longueur du jour
Tomorrow will be .
, % of the Moon is Illuminated

Extrêmes aujourd'hui

Country Highs Country Lows

Community

WunderPhotos

Upload Photos

1,779,199 Photos téléchargées !

WunderBlogs® & News

Nearby

Qualité de l'air

  Qualité de l'air Indice de la qualité de l'air Polluant
Not available.

Épaisseur de neige

Station Depth Altitude

Activité sismique

Ville Distance Mag. Time & Date
Minimum magnitude displayed is 2.5.

Températures des eaux côtières

Lieu Température

Stations météo à proximité